createdAt,value
2022-08-26T00:02:10.726Z,16.44
2022-08-26T00:07:18.245Z,16.48
2022-08-26T00:12:25.841Z,16.48
2022-08-26T00:17:33.743Z,16.44
2022-08-26T00:22:41.777Z,16.41
2022-08-26T00:27:50.483Z,16.38
2022-08-26T00:32:58.879Z,16.29
2022-08-26T00:38:05.671Z,16.24
2022-08-26T00:43:12.219Z,16.22
2022-08-26T00:48:19.568Z,16.28
2022-08-26T00:53:26.619Z,16.34
2022-08-26T00:58:34.390Z,16.32
2022-08-26T01:03:41.672Z,16.26
2022-08-26T01:08:48.885Z,16.24
2022-08-26T01:13:56.347Z,16.2
2022-08-26T01:19:03.674Z,16.18
2022-08-26T01:24:10.843Z,16.19
2022-08-26T01:29:18.642Z,16.16
2022-08-26T01:34:27.349Z,16.17
2022-08-26T01:39:34.625Z,16.14
2022-08-26T01:44:42.149Z,16.06
2022-08-26T01:49:49.679Z,16.04
2022-08-26T01:54:56.364Z,16.03
2022-08-26T02:00:03.417Z,16.01
2022-08-26T02:05:10.917Z,15.98
2022-08-26T02:10:17.824Z,15.96
2022-08-26T02:15:25.041Z,15.96
2022-08-26T02:20:32.599Z,15.92
2022-08-26T02:25:40.257Z,15.86
2022-08-26T02:30:48.531Z,15.83
2022-08-26T02:35:56.180Z,15.83
2022-08-26T02:41:03.139Z,15.8
2022-08-26T02:46:11.637Z,15.8
2022-08-26T02:51:19.323Z,15.82
2022-08-26T02:56:27.412Z,15.93
2022-08-26T03:01:34.295Z,16.04
2022-08-26T03:06:42.131Z,15.94
2022-08-26T03:11:49.733Z,15.85
2022-08-26T03:16:57.511Z,15.74
2022-08-26T03:22:04.368Z,15.66
2022-08-26T03:27:14.007Z,15.58
2022-08-26T03:32:22.485Z,15.54
2022-08-26T03:37:35.267Z,15.52
2022-08-26T03:42:42.152Z,15.5
2022-08-26T03:47:50.043Z,15.48
2022-08-26T03:52:57.496Z,15.5
2022-08-26T03:58:05.737Z,15.46
2022-08-26T04:03:12.838Z,15.6
2022-08-26T04:08:20.998Z,15.99
2022-08-26T04:13:29.168Z,16.0
2022-08-26T04:18:36.450Z,15.86
2022-08-26T04:23:42.937Z,15.82
2022-08-26T04:28:52.238Z,15.76
2022-08-26T04:34:05.802Z,15.84
2022-08-26T04:39:14.010Z,15.93
2022-08-26T04:44:21.416Z,16.01
2022-08-26T04:49:29.468Z,16.07
2022-08-26T04:54:37.048Z,16.36
2022-08-26T04:59:45.665Z,16.85
2022-08-26T05:04:52.705Z,17.22
2022-08-26T05:09:59.135Z,17.92
2022-08-26T05:15:07.098Z,18.6
2022-08-26T05:20:15.145Z,18.97
2022-08-26T05:25:23.945Z,19.19
2022-08-26T05:30:32.411Z,19.46
2022-08-26T05:35:39.769Z,19.51
2022-08-26T05:40:48.087Z,19.56
2022-08-26T05:45:55.396Z,19.74
2022-08-26T05:51:02.639Z,19.93
2022-08-26T05:56:09.483Z,19.88
2022-08-26T06:01:17.843Z,19.84
2022-08-26T06:06:24.243Z,20.02
2022-08-26T06:11:31.754Z,20.43
2022-08-26T06:16:40.480Z,21.32
2022-08-26T06:21:49.133Z,21.94
2022-08-26T06:26:58.093Z,22.26
2022-08-26T06:32:05.940Z,22.56
2022-08-26T06:37:14.660Z,22.81
2022-08-26T06:42:23.053Z,22.99
2022-08-26T06:47:30.812Z,23.3
2022-08-26T06:52:38.008Z,23.62
2022-08-26T06:57:46.328Z,24.0
2022-08-26T07:02:54.238Z,24.83
2022-08-26T07:08:01.784Z,26.52
2022-08-26T07:13:09.645Z,28.58
2022-08-26T07:18:17.521Z,30.44
2022-08-26T07:23:25.367Z,31.62
2022-08-26T07:28:32.309Z,33.06
2022-08-26T07:33:40.229Z,34.26
2022-08-26T07:38:47.115Z,35.14
2022-08-26T07:43:54.801Z,36.16
2022-08-26T07:49:02.480Z,37.22
2022-08-26T07:54:10.333Z,37.92
2022-08-26T07:59:18.619Z,39.48
2022-08-26T08:04:26.116Z,39.78
2022-08-26T08:09:33.659Z,40.22
2022-08-26T08:14:41.473Z,40.68
2022-08-26T08:19:48.691Z,41.39
2022-08-26T08:24:55.958Z,41.83
2022-08-26T08:30:04.244Z,41.34
2022-08-26T08:35:11.692Z,41.58
2022-08-26T08:40:19.691Z,41.83
2022-08-26T08:45:27.290Z,42.6
2022-08-26T08:50:35.188Z,43.89
2022-08-26T08:55:42.317Z,44.17
2022-08-26T09:00:50.122Z,44.61
2022-08-26T09:05:57.468Z,45.0
2022-08-26T09:11:04.558Z,45.82
2022-08-26T09:16:12.378Z,45.84
2022-08-26T09:21:19.966Z,45.74
2022-08-26T09:26:26.773Z,45.9
2022-08-26T09:31:34.573Z,46.15
2022-08-26T09:36:42.255Z,46.34
2022-08-26T09:41:50.807Z,46.39
2022-08-26T09:46:58.569Z,46.43
2022-08-26T09:52:05.964Z,46.93
2022-08-26T09:57:14.655Z,47.59
2022-08-26T10:02:22.062Z,46.86
2022-08-26T10:07:30.132Z,47.34
2022-08-26T10:12:37.336Z,47.49
2022-08-26T10:17:45.682Z,47.0
2022-08-26T10:22:52.591Z,47.21
2022-08-26T10:28:01.171Z,46.93
2022-08-26T10:33:08.049Z,44.48
2022-08-26T10:38:15.929Z,44.18
2022-08-26T10:43:24.107Z,44.41
2022-08-26T10:48:31.707Z,45.98
2022-08-26T10:53:39.402Z,45.94
2022-08-26T10:58:46.171Z,41.28
2022-08-26T11:03:53.177Z,45.76
2022-08-26T11:09:01.018Z,47.09
2022-08-26T11:14:08.974Z,48.78
2022-08-26T11:19:17.201Z,48.28
2022-08-26T11:24:25.634Z,44.59
2022-08-26T11:29:33.007Z,41.75
2022-08-26T11:34:40.253Z,39.43
2022-08-26T11:39:49.275Z,39.77
2022-08-26T11:44:57.382Z,44.2
2022-08-26T11:50:05.231Z,41.88
2022-08-26T11:55:13.483Z,38.74
2022-08-26T12:00:20.784Z,39.66
2022-08-26T12:05:28.573Z,42.02
2022-08-26T12:10:36.398Z,42.62
2022-08-26T12:15:44.288Z,41.28
2022-08-26T12:20:51.365Z,39.74
2022-08-26T12:25:59.260Z,38.65
2022-08-26T12:31:07.826Z,37.38
2022-08-26T12:36:16.401Z,36.56
2022-08-26T12:41:24.175Z,35.84
2022-08-26T12:46:37.664Z,35.6
2022-08-26T12:51:44.224Z,35.44
2022-08-26T12:56:51.419Z,35.18
2022-08-26T13:01:59.265Z,35.36
2022-08-26T13:07:06.712Z,35.88
2022-08-26T13:12:13.701Z,36.26
2022-08-26T13:17:21.445Z,35.92
2022-08-26T13:22:29.668Z,35.86
2022-08-26T13:27:37.179Z,35.93
2022-08-26T13:32:44.545Z,35.82
2022-08-26T13:37:52.177Z,35.79
2022-08-26T13:43:00.354Z,35.58
2022-08-26T13:48:09.387Z,35.25
2022-08-26T13:53:16.314Z,34.64
2022-08-26T13:58:22.934Z,33.95
2022-08-26T14:03:30.397Z,33.62
2022-08-26T14:08:39.058Z,33.58
2022-08-26T14:13:46.198Z,33.44
2022-08-26T14:18:53.709Z,33.56
2022-08-26T14:25:32.974Z,33.4
2022-08-26T14:30:38.935Z,33.6
2022-08-26T14:35:45.500Z,33.64
2022-08-26T14:40:52.661Z,33.85
2022-08-26T14:46:00.506Z,34.18
2022-08-26T14:51:07.596Z,34.18
2022-08-26T14:56:16.594Z,35.1
2022-08-26T15:01:24.766Z,35.9
2022-08-26T15:06:32.246Z,35.59
2022-08-26T15:11:39.788Z,36.08
2022-08-26T15:16:47.449Z,36.71
2022-08-26T15:21:54.167Z,37.38
2022-08-26T15:27:01.374Z,37.53
2022-08-26T15:32:12.358Z,37.82
2022-08-26T15:37:20.217Z,38.01
2022-08-26T15:42:26.134Z,37.84
2022-08-26T15:47:32.699Z,35.33
2022-08-26T15:52:39.850Z,33.54
2022-08-26T15:57:46.636Z,33.2
2022-08-26T16:02:54.167Z,31.66
2022-08-26T16:08:01.075Z,30.52
2022-08-26T16:13:08.433Z,30.42
2022-08-26T16:18:14.891Z,31.58
2022-08-26T16:23:21.826Z,31.6
2022-08-26T16:28:29.330Z,31.6
2022-08-26T16:33:37.502Z,30.28
2022-08-26T16:38:44.633Z,29.23
2022-08-26T16:43:52.479Z,28.56
2022-08-26T16:48:59.401Z,27.58
2022-08-26T16:54:06.036Z,26.81
2022-08-26T16:59:14.303Z,26.3
2022-08-26T17:04:21.711Z,25.81
2022-08-26T17:09:29.823Z,25.58
2022-08-26T17:14:38.171Z,25.49
2022-08-26T17:19:46.011Z,25.34
2022-08-26T17:24:53.853Z,25.14
2022-08-26T17:30:00.542Z,24.8
2022-08-26T17:35:07.743Z,24.29
2022-08-26T17:40:15.354Z,23.98
2022-08-26T17:45:22.821Z,23.62
2022-08-26T17:50:30.671Z,23.29
2022-08-26T17:55:39.088Z,23.06
2022-08-26T18:00:47.023Z,22.97
2022-08-26T18:05:54.027Z,22.84
2022-08-26T18:11:00.249Z,22.62
2022-08-26T18:16:07.259Z,22.49
2022-08-26T18:21:14.462Z,22.62
2022-08-26T18:26:21.656Z,22.71
2022-08-26T18:31:29.821Z,22.66
2022-08-26T18:36:37.424Z,22.43
2022-08-26T18:41:45.293Z,22.46
2022-08-26T18:46:53.051Z,22.57
2022-08-26T18:52:04.109Z,22.58
2022-08-26T18:57:17.049Z,22.66
2022-08-26T19:02:23.579Z,22.72
2022-08-26T19:07:30.201Z,22.62
2022-08-26T19:12:37.340Z,22.56
2022-08-26T19:17:44.536Z,22.43
2022-08-26T19:23:06.730Z,22.29
2022-08-26T19:28:15.297Z,22.12
2022-08-26T19:33:23.046Z,21.98
2022-08-26T19:38:30.290Z,21.79
2022-08-26T19:43:44.729Z,21.66
2022-08-26T19:48:50.778Z,21.57
2022-08-26T19:53:58.618Z,21.4
2022-08-26T19:59:05.178Z,21.28
2022-08-26T20:04:12.954Z,21.21
2022-08-26T20:09:20.379Z,21.18
2022-08-26T20:14:28.062Z,21.11
2022-08-26T20:19:35.256Z,21.16
2022-08-26T20:24:42.458Z,21.12
2022-08-26T20:29:50.808Z,21.22
2022-08-26T20:34:58.894Z,21.5
2022-08-26T20:40:08.331Z,21.68
2022-08-26T20:45:15.305Z,21.71
2022-08-26T20:50:22.300Z,22.15
2022-08-26T20:55:29.631Z,22.4
2022-08-26T21:00:38.036Z,20.85
2022-08-26T21:05:43.880Z,19.81
2022-08-26T21:10:49.850Z,19.23
2022-08-26T21:15:58.806Z,18.91
2022-08-26T21:21:06.006Z,18.5
2022-08-26T21:26:13.342Z,18.39
2022-08-26T21:31:20.839Z,18.29
2022-08-26T21:36:28.371Z,18.2
2022-08-26T21:41:37.295Z,18.26
2022-08-26T21:46:45.036Z,18.39
2022-08-26T21:51:52.407Z,18.34
2022-08-26T21:56:59.933Z,18.4
2022-08-26T22:03:38.498Z,18.53
2022-08-26T22:08:45.018Z,18.57
2022-08-26T22:13:52.216Z,18.51
2022-08-26T22:18:59.455Z,18.53
2022-08-26T22:24:06.947Z,18.58
2022-08-26T22:29:15.720Z,18.62
2022-08-26T22:34:22.641Z,18.64
2022-08-26T22:39:30.172Z,18.69
2022-08-26T22:44:38.276Z,18.71
2022-08-26T22:49:45.816Z,18.7
2022-08-26T22:54:53.979Z,18.75
2022-08-26T23:00:02.019Z,18.75
2022-08-26T23:05:09.336Z,18.7
2022-08-26T23:10:16.562Z,18.71
2022-08-26T23:15:23.737Z,18.75
2022-08-26T23:20:32.531Z,18.78
2022-08-26T23:25:41.070Z,18.8
2022-08-26T23:30:49.343Z,18.82
2022-08-26T23:35:57.616Z,18.84
2022-08-26T23:41:04.859Z,18.88
2022-08-26T23:46:12.711Z,18.89
2022-08-26T23:51:20.602Z,18.86
2022-08-26T23:56:28.414Z,18.83
